Ana Sayfa
METAR-TAF:

METAR-TAF

Havaalanları :

Hua Hin, Tayland

Enlem: 12-35N, Boylam: 099-57E, yükseklik: 5 m

Güncel hava durumu gözlemi

Rapor saat 11:00 UTC de 51 dakika önce yapıldı.
Rüzgar güney/güneydoğudan 5 kt
Sıcaklık 28°C
Nem 79%
Basınç 1012 hPa
Görüş mesafesi: 9000 m
3000 ft yükseklikte az bulutlu

METAR: VTPH 221100Z 15005KT 9000 FEW030 28/24 Q1012 NOSIG

Saat: 18:51 (11:51 UTC)

Tahmin

Rapor saat 11:00 UTC de 51 dakika önce yapıldı.
Ayın 22'si saat 12 UTC'den ayın 23'si saat 12 UTC'ye kadar geçerli Tahmin
Rüzgar kuzeydan kt
Görüş mesafesi 10 km veya daha fazla
3000 ft yükseklikte az bulutlu
Dönüşüyor
ayın 23'si saat 02 UTC'den ayın 23'si saat 04 UTC'ye kadar
Rüzgar güneydoğudan 8 kt

TAF: VTPH 221100Z 2212/2312 00000KT 9999 FEW030 BECMG 2302/2304 13008KT

4.000'den fazla havaalanı için hava durumu gözlemleri ve tahminleri (METAR ve TAF raporları).

Kullanılabilir istasyonlar harita üzerinde sarı ve kırmızı noktalarla gösterilir.

İstasyonun adını görmek için fareyi noktanın üzerinde gezdirin.

Sonrasında hava gözlem ve tahminlerini görmek için tıklayın.

Haritayı değiştirmek için: yaklaştırmak için siyah artı işaretli yeşil düğmeye ve uzaklaştırmak için de eksi işaretli düğmeye hızla tıklayın; bitişik haritalar için yeşil okları kullanın.


METAR-TAF: